sensor_id;sensor_type;location;lat;lon;timestamp;temperature;humidity
27922;DHT22;15261;50.356;10.340;2022-08-21T00:01:02;16.00;99.90
27922;DHT22;15261;50.356;10.340;2022-08-21T00:03:28;15.90;99.90
27922;DHT22;15261;50.356;10.340;2022-08-21T00:05:54;15.80;99.90
27922;DHT22;15261;50.356;10.340;2022-08-21T00:08:20;15.80;99.90
27922;DHT22;15261;50.356;10.340;2022-08-21T00:10:46;15.90;99.90
27922;DHT22;15261;50.356;10.340;2022-08-21T00:13:48;15.90;99.90
27922;DHT22;15261;50.356;10.340;2022-08-21T00:16:13;15.80;99.90
27922;DHT22;15261;50.356;10.340;2022-08-21T00:18:39;15.70;99.90
27922;DHT22;15261;50.356;10.340;2022-08-21T00:21:05;15.70;99.90
27922;DHT22;15261;50.356;10.340;2022-08-21T00:23:33;15.70;99.90
27922;DHT22;15261;50.356;10.340;2022-08-21T00:25:59;15.60;99.90
27922;DHT22;15261;50.356;10.340;2022-08-21T00:28:25;15.60;99.90
27922;DHT22;15261;50.356;10.340;2022-08-21T00:30:50;15.60;99.90
27922;DHT22;15261;50.356;10.340;2022-08-21T00:33:16;15.60;99.90
27922;DHT22;15261;50.356;10.340;2022-08-21T00:35:43;15.50;99.90
27922;DHT22;15261;50.356;10.340;2022-08-21T00:38:09;15.30;99.90
27922;DHT22;15261;50.356;10.340;2022-08-21T00:40:46;15.10;99.90
27922;DHT22;15261;50.356;10.340;2022-08-21T00:43:15;15.10;99.90
27922;DHT22;15261;50.356;10.340;2022-08-21T00:45:41;15.10;99.90
27922;DHT22;15261;50.356;10.340;2022-08-21T00:48:07;14.90;99.90
27922;DHT22;15261;50.356;10.340;2022-08-21T00:50:35;14.90;99.90
27922;DHT22;15261;50.356;10.340;2022-08-21T00:53:05;15.00;99.90
27922;DHT22;15261;50.356;10.340;2022-08-21T00:55:32;15.00;99.90
27922;DHT22;15261;50.356;10.340;2022-08-21T00:57:59;14.80;99.90
27922;DHT22;15261;50.356;10.340;2022-08-21T01:00:29;14.70;99.90
27922;DHT22;15261;50.356;10.340;2022-08-21T01:03:00;14.70;99.90
27922;DHT22;15261;50.356;10.340;2022-08-21T01:05:27;14.70;99.90
27922;DHT22;15261;50.356;10.340;2022-08-21T01:07:54;14.80;99.90
27922;DHT22;15261;50.356;10.340;2022-08-21T01:10:22;14.80;99.90
27922;DHT22;15261;50.356;10.340;2022-08-21T01:12:48;14.90;99.90
27922;DHT22;15261;50.356;10.340;2022-08-21T01:15:16;14.80;99.90
27922;DHT22;15261;50.356;10.340;2022-08-21T01:17:42;14.90;99.90
27922;DHT22;15261;50.356;10.340;2022-08-21T01:20:10;14.90;99.90
27922;DHT22;15261;50.356;10.340;2022-08-21T01:22:36;14.90;99.90
27922;DHT22;15261;50.356;10.340;2022-08-21T01:25:05;14.90;99.90
27922;DHT22;15261;50.356;10.340;2022-08-21T01:27:30;14.90;99.90
27922;DHT22;15261;50.356;10.340;2022-08-21T01:30:01;14.90;99.90
27922;DHT22;15261;50.356;10.340;2022-08-21T01:32:27;14.90;99.90
27922;DHT22;15261;50.356;10.340;2022-08-21T01:34:53;14.90;99.90
27922;DHT22;15261;50.356;10.340;2022-08-21T01:37:20;14.90;99.90
27922;DHT22;15261;50.356;10.340;2022-08-21T01:39:47;14.90;99.90
27922;DHT22;15261;50.356;10.340;2022-08-21T01:42:13;14.80;99.90
27922;DHT22;15261;50.356;10.340;2022-08-21T01:44:39;14.80;99.90
27922;DHT22;15261;50.356;10.340;2022-08-21T01:47:07;14.80;99.90
27922;DHT22;15261;50.356;10.340;2022-08-21T01:49:35;14.80;99.90
27922;DHT22;15261;50.356;10.340;2022-08-21T01:52:02;14.80;99.90
27922;DHT22;15261;50.356;10.340;2022-08-21T01:54:30;14.80;99.90
27922;DHT22;15261;50.356;10.340;2022-08-21T01:56:56;14.80;99.90
27922;DHT22;15261;50.356;10.340;2022-08-21T01:59:23;14.80;99.90
27922;DHT22;15261;50.356;10.340;2022-08-21T02:01:49;14.70;99.90
27922;DHT22;15261;50.356;10.340;2022-08-21T02:04:22;14.50;99.90
27922;DHT22;15261;50.356;10.340;2022-08-21T02:06:48;14.40;99.90
27922;DHT22;15261;50.356;10.340;2022-08-21T02:09:14;14.50;99.90
27922;DHT22;15261;50.356;10.340;2022-08-21T02:11:41;14.50;99.90
27922;DHT22;15261;50.356;10.340;2022-08-21T02:14:11;14.40;99.90
27922;DHT22;15261;50.356;10.340;2022-08-21T02:16:40;14.40;99.90
27922;DHT22;15261;50.356;10.340;2022-08-21T02:19:05;14.30;99.90
27922;DHT22;15261;50.356;10.340;2022-08-21T02:21:31;14.20;99.90
27922;DHT22;15261;50.356;10.340;2022-08-21T02:23:57;14.20;99.90
27922;DHT22;15261;50.356;10.340;2022-08-21T02:26:23;14.20;99.90
27922;DHT22;15261;50.356;10.340;2022-08-21T02:28:49;14.30;99.90
27922;DHT22;15261;50.356;10.340;2022-08-21T02:31:14;14.30;99.90
27922;DHT22;15261;50.356;10.340;2022-08-21T02:33:40;14.30;99.90
27922;DHT22;15261;50.356;10.340;2022-08-21T02:36:07;14.20;99.90
27922;DHT22;15261;50.356;10.340;2022-08-21T02:38:34;14.20;99.90
27922;DHT22;15261;50.356;10.340;2022-08-21T02:41:05;14.30;99.90
27922;DHT22;15261;50.356;10.340;2022-08-21T02:43:31;14.10;99.90
27922;DHT22;15261;50.356;10.340;2022-08-21T02:45:57;14.10;99.90
27922;DHT22;15261;50.356;10.340;2022-08-21T02:48:26;14.10;99.90
27922;DHT22;15261;50.356;10.340;2022-08-21T02:50:58;14.10;99.90
27922;DHT22;15261;50.356;10.340;2022-08-21T02:53:25;14.00;99.90
27922;DHT22;15261;50.356;10.340;2022-08-21T02:55:52;14.00;99.90
27922;DHT22;15261;50.356;10.340;2022-08-21T02:58:27;14.00;99.90
27922;DHT22;15261;50.356;10.340;2022-08-21T03:00:53;13.90;99.90
27922;DHT22;15261;50.356;10.340;2022-08-21T03:03:19;13.80;99.90
27922;DHT22;15261;50.356;10.340;2022-08-21T03:05:46;13.80;99.90
27922;DHT22;15261;50.356;10.340;2022-08-21T03:08:13;13.80;99.90
27922;DHT22;15261;50.356;10.340;2022-08-21T03:10:42;13.70;99.90
27922;DHT22;15261;50.356;10.340;2022-08-21T03:13:10;13.70;99.90
27922;DHT22;15261;50.356;10.340;2022-08-21T03:15:36;13.80;99.90
27922;DHT22;15261;50.356;10.340;2022-08-21T03:18:02;13.80;99.90
27922;DHT22;15261;50.356;10.340;2022-08-21T03:20:30;13.80;99.90
27922;DHT22;15261;50.356;10.340;2022-08-21T03:22:57;13.50;99.90
27922;DHT22;15261;50.356;10.340;2022-08-21T03:25:24;13.50;99.90
27922;DHT22;15261;50.356;10.340;2022-08-21T03:27:50;13.50;99.90
27922;DHT22;15261;50.356;10.340;2022-08-21T03:30:17;13.50;99.90
27922;DHT22;15261;50.356;10.340;2022-08-21T03:32:45;13.60;99.90
27922;DHT22;15261;50.356;10.340;2022-08-21T03:35:12;13.70;99.90
27922;DHT22;15261;50.356;10.340;2022-08-21T03:37:38;13.70;99.90
27922;DHT22;15261;50.356;10.340;2022-08-21T03:40:05;13.70;99.90
27922;DHT22;15261;50.356;10.340;2022-08-21T03:42:34;13.70;99.90
27922;DHT22;15261;50.356;10.340;2022-08-21T03:45:00;13.70;99.90
27922;DHT22;15261;50.356;10.340;2022-08-21T03:47:26;13.70;99.90
27922;DHT22;15261;50.356;10.340;2022-08-21T03:49:51;13.60;99.90
27922;DHT22;15261;50.356;10.340;2022-08-21T03:52:17;13.60;99.90
27922;DHT22;15261;50.356;10.340;2022-08-21T03:54:44;13.60;99.90
27922;DHT22;15261;50.356;10.340;2022-08-21T03:57:10;13.50;99.90
27922;DHT22;15261;50.356;10.340;2022-08-21T03:59:36;13.50;99.90
27922;DHT22;15261;50.356;10.340;2022-08-21T04:02:04;13.60;99.90
27922;DHT22;15261;50.356;10.340;2022-08-21T04:04:30;13.70;99.90
27922;DHT22;15261;50.356;10.340;2022-08-21T04:06:56;13.70;99.90
27922;DHT22;15261;50.356;10.340;2022-08-21T04:09:23;13.80;99.90
27922;DHT22;15261;50.356;10.340;2022-08-21T04:11:49;13.90;99.90
27922;DHT22;15261;50.356;10.340;2022-08-21T04:14:15;13.90;99.90
27922;DHT22;15261;50.356;10.340;2022-08-21T04:16:42;13.80;99.90
27922;DHT22;15261;50.356;10.340;2022-08-21T04:19:08;13.90;99.90
27922;DHT22;15261;50.356;10.340;2022-08-21T04:21:36;13.80;99.90
27922;DHT22;15261;50.356;10.340;2022-08-21T04:24:02;13.70;99.90
27922;DHT22;15261;50.356;10.340;2022-08-21T04:26:28;13.70;99.90
27922;DHT22;15261;50.356;10.340;2022-08-21T04:28:53;13.60;99.90
27922;DHT22;15261;50.356;10.340;2022-08-21T04:31:22;13.50;99.90
27922;DHT22;15261;50.356;10.340;2022-08-21T04:33:48;13.50;99.90
27922;DHT22;15261;50.356;10.340;2022-08-21T04:36:14;13.50;99.90
27922;DHT22;15261;50.356;10.340;2022-08-21T04:38:39;13.50;99.90
27922;DHT22;15261;50.356;10.340;2022-08-21T04:41:05;13.50;99.90
27922;DHT22;15261;50.356;10.340;2022-08-21T04:43:32;13.60;99.90
27922;DHT22;15261;50.356;10.340;2022-08-21T04:45:57;13.60;99.90
27922;DHT22;15261;50.356;10.340;2022-08-21T04:48:23;13.60;99.90
27922;DHT22;15261;50.356;10.340;2022-08-21T04:54:25;13.70;99.90
27922;DHT22;15261;50.356;10.340;2022-08-21T04:56:44;13.70;99.90
27922;DHT22;15261;50.356;10.340;2022-08-21T04:59:13;13.80;99.90
27922;DHT22;15261;50.356;10.340;2022-08-21T05:01:41;13.90;99.90
27922;DHT22;15261;50.356;10.340;2022-08-21T05:04:10;14.10;99.90
27922;DHT22;15261;50.356;10.340;2022-08-21T05:06:38;14.20;99.90
27922;DHT22;15261;50.356;10.340;2022-08-21T05:09:06;14.30;99.90
27922;DHT22;15261;50.356;10.340;2022-08-21T05:11:32;14.20;99.90
27922;DHT22;15261;50.356;10.340;2022-08-21T05:13:58;14.20;99.90
27922;DHT22;15261;50.356;10.340;2022-08-21T05:16:24;14.20;99.90
27922;DHT22;15261;50.356;10.340;2022-08-21T05:18:50;14.20;99.90
27922;DHT22;15261;50.356;10.340;2022-08-21T05:21:15;14.30;99.90
27922;DHT22;15261;50.356;10.340;2022-08-21T05:23:41;14.50;99.90
27922;DHT22;15261;50.356;10.340;2022-08-21T05:26:08;14.60;99.90
27922;DHT22;15261;50.356;10.340;2022-08-21T05:28:33;14.70;99.90
27922;DHT22;15261;50.356;10.340;2022-08-21T05:30:59;14.80;99.90
27922;DHT22;15261;50.356;10.340;2022-08-21T05:33:25;15.00;99.90
27922;DHT22;15261;50.356;10.340;2022-08-21T05:35:52;15.10;99.90
27922;DHT22;15261;50.356;10.340;2022-08-21T05:38:18;15.20;99.90
27922;DHT22;15261;50.356;10.340;2022-08-21T05:40:45;15.10;99.90
27922;DHT22;15261;50.356;10.340;2022-08-21T05:43:10;15.20;99.90
27922;DHT22;15261;50.356;10.340;2022-08-21T05:45:36;15.40;99.90
27922;DHT22;15261;50.356;10.340;2022-08-21T05:48:23;15.40;99.90
27922;DHT22;15261;50.356;10.340;2022-08-21T05:50:50;15.60;99.90
27922;DHT22;15261;50.356;10.340;2022-08-21T05:53:17;15.70;99.90
27922;DHT22;15261;50.356;10.340;2022-08-21T05:55:44;15.70;99.90
27922;DHT22;15261;50.356;10.340;2022-08-21T05:58:11;15.70;99.90
27922;DHT22;15261;50.356;10.340;2022-08-21T06:00:44;15.70;99.90
27922;DHT22;15261;50.356;10.340;2022-08-21T06:03:21;15.80;99.90
27922;DHT22;15261;50.356;10.340;2022-08-21T06:05:47;15.90;99.90
27922;DHT22;15261;50.356;10.340;2022-08-21T06:08:19;16.00;99.90
27922;DHT22;15261;50.356;10.340;2022-08-21T06:10:46;16.10;99.90
27922;DHT22;15261;50.356;10.340;2022-08-21T06:13:12;16.20;99.90
27922;DHT22;15261;50.356;10.340;2022-08-21T06:15:38;16.30;99.90
27922;DHT22;15261;50.356;10.340;2022-08-21T06:18:04;16.40;99.90
27922;DHT22;15261;50.356;10.340;2022-08-21T06:20:30;16.50;99.90
27922;DHT22;15261;50.356;10.340;2022-08-21T06:22:57;16.60;99.90
27922;DHT22;15261;50.356;10.340;2022-08-21T06:25:23;16.80;99.90
27922;DHT22;15261;50.356;10.340;2022-08-21T06:27:49;16.80;99.90
27922;DHT22;15261;50.356;10.340;2022-08-21T06:30:15;16.80;99.90
27922;DHT22;15261;50.356;10.340;2022-08-21T06:32:41;16.70;99.90
27922;DHT22;15261;50.356;10.340;2022-08-21T06:35:07;16.70;99.90
27922;DHT22;15261;50.356;10.340;2022-08-21T06:37:33;16.70;99.90
27922;DHT22;15261;50.356;10.340;2022-08-21T06:39:58;16.80;99.90
27922;DHT22;15261;50.356;10.340;2022-08-21T06:42:24;17.00;99.90
27922;DHT22;15261;50.356;10.340;2022-08-21T06:44:50;17.10;99.90
27922;DHT22;15261;50.356;10.340;2022-08-21T06:47:16;17.20;99.90
27922;DHT22;15261;50.356;10.340;2022-08-21T06:49:41;17.40;99.90
27922;DHT22;15261;50.356;10.340;2022-08-21T06:52:24;17.60;99.90
27922;DHT22;15261;50.356;10.340;2022-08-21T06:54:50;17.80;99.90
27922;DHT22;15261;50.356;10.340;2022-08-21T06:57:15;17.90;99.90
27922;DHT22;15261;50.356;10.340;2022-08-21T06:59:41;18.00;99.90
27922;DHT22;15261;50.356;10.340;2022-08-21T07:02:07;18.20;99.90
27922;DHT22;15261;50.356;10.340;2022-08-21T07:04:33;18.30;99.90
27922;DHT22;15261;50.356;10.340;2022-08-21T07:06:58;18.40;99.90
27922;DHT22;15261;50.356;10.340;2022-08-21T07:09:24;18.50;99.90
27922;DHT22;15261;50.356;10.340;2022-08-21T07:11:52;18.70;99.90
27922;DHT22;15261;50.356;10.340;2022-08-21T07:14:18;18.70;99.90
27922;DHT22;15261;50.356;10.340;2022-08-21T07:16:44;18.80;99.90
27922;DHT22;15261;50.356;10.340;2022-08-21T07:19:10;19.10;99.90
27922;DHT22;15261;50.356;10.340;2022-08-21T07:21:36;19.20;99.90
27922;DHT22;15261;50.356;10.340;2022-08-21T07:24:02;19.30;99.90
27922;DHT22;15261;50.356;10.340;2022-08-21T07:26:27;19.40;99.90
27922;DHT22;15261;50.356;10.340;2022-08-21T07:28:53;19.50;99.90
27922;DHT22;15261;50.356;10.340;2022-08-21T07:31:21;19.60;99.90
27922;DHT22;15261;50.356;10.340;2022-08-21T07:33:48;19.80;99.90
27922;DHT22;15261;50.356;10.340;2022-08-21T07:36:14;20.00;99.90
27922;DHT22;15261;50.356;10.340;2022-08-21T07:38:40;20.00;99.90
27922;DHT22;15261;50.356;10.340;2022-08-21T07:41:13;20.20;99.90
27922;DHT22;15261;50.356;10.340;2022-08-21T07:43:39;20.40;99.90
27922;DHT22;15261;50.356;10.340;2022-08-21T07:46:05;20.50;99.90
27922;DHT22;15261;50.356;10.340;2022-08-21T07:48:30;20.60;99.90
27922;DHT22;15261;50.356;10.340;2022-08-21T07:50:56;20.80;99.90
27922;DHT22;15261;50.356;10.340;2022-08-21T07:53:23;20.90;99.90
27922;DHT22;15261;50.356;10.340;2022-08-21T07:55:48;21.10;99.90
27922;DHT22;15261;50.356;10.340;2022-08-21T07:58:14;21.20;99.90
27922;DHT22;15261;50.356;10.340;2022-08-21T08:00:40;21.30;99.90
27922;DHT22;15261;50.356;10.340;2022-08-21T08:03:06;21.30;99.90
27922;DHT22;15261;50.356;10.340;2022-08-21T08:05:32;21.30;99.90
27922;DHT22;15261;50.356;10.340;2022-08-21T08:08:03;21.40;99.90
27922;DHT22;15261;50.356;10.340;2022-08-21T08:10:31;21.60;99.90
27922;DHT22;15261;50.356;10.340;2022-08-21T08:12:56;21.80;99.90
27922;DHT22;15261;50.356;10.340;2022-08-21T08:15:30;21.90;99.90
27922;DHT22;15261;50.356;10.340;2022-08-21T08:17:56;22.10;99.90
27922;DHT22;15261;50.356;10.340;2022-08-21T08:20:23;22.10;99.90
27922;DHT22;15261;50.356;10.340;2022-08-21T08:22:50;22.20;99.90
27922;DHT22;15261;50.356;10.340;2022-08-21T08:25:17;22.30;99.90
27922;DHT22;15261;50.356;10.340;2022-08-21T08:27:42;22.50;99.90
27922;DHT22;15261;50.356;10.340;2022-08-21T08:30:11;22.60;99.90
27922;DHT22;15261;50.356;10.340;2022-08-21T08:32:37;22.60;99.90
27922;DHT22;15261;50.356;10.340;2022-08-21T08:35:04;22.60;99.90
27922;DHT22;15261;50.356;10.340;2022-08-21T08:37:30;22.70;99.90
27922;DHT22;15261;50.356;10.340;2022-08-21T08:39:57;22.90;99.90
27922;DHT22;15261;50.356;10.340;2022-08-21T08:42:27;22.90;99.90
27922;DHT22;15261;50.356;10.340;2022-08-21T08:45:04;23.00;99.90
27922;DHT22;15261;50.356;10.340;2022-08-21T08:47:31;23.20;99.90
27922;DHT22;15261;50.356;10.340;2022-08-21T08:50:28;23.50;99.90
27922;DHT22;15261;50.356;10.340;2022-08-21T08:53:07;23.70;99.90
27922;DHT22;15261;50.356;10.340;2022-08-21T08:55:41;24.10;99.90
27922;DHT22;15261;50.356;10.340;2022-08-21T08:58:11;24.30;99.90
27922;DHT22;15261;50.356;10.340;2022-08-21T09:00:38;24.30;99.90
27922;DHT22;15261;50.356;10.340;2022-08-21T09:03:04;24.30;99.90
27922;DHT22;15261;50.356;10.340;2022-08-21T09:05:58;24.20;99.90
27922;DHT22;15261;50.356;10.340;2022-08-21T09:13:47;23.80;99.90
27922;DHT22;15261;50.356;10.340;2022-08-21T09:16:47;23.80;99.90
27922;DHT22;15261;50.356;10.340;2022-08-21T09:19:31;24.10;99.90
27922;DHT22;15261;50.356;10.340;2022-08-21T09:27:25;24.60;99.90
27922;DHT22;15261;50.356;10.340;2022-08-21T09:29:58;24.50;99.50
27922;DHT22;15261;50.356;10.340;2022-08-21T09:32:29;24.20;99.90
27922;DHT22;15261;50.356;10.340;2022-08-21T09:37:33;24.10;99.90
27922;DHT22;15261;50.356;10.340;2022-08-21T09:40:00;23.90;99.90
27922;DHT22;15261;50.356;10.340;2022-08-21T09:42:30;23.80;99.90
27922;DHT22;15261;50.356;10.340;2022-08-21T09:45:11;24.00;99.90
27922;DHT22;15261;50.356;10.340;2022-08-21T09:48:11;24.40;98.20
27922;DHT22;15261;50.356;10.340;2022-08-21T09:50:37;24.60;97.60
27922;DHT22;15261;50.356;10.340;2022-08-21T09:53:02;25.30;96.20
27922;DHT22;15261;50.356;10.340;2022-08-21T09:55:33;25.60;94.50
27922;DHT22;15261;50.356;10.340;2022-08-21T09:58:31;25.60;92.80
27922;DHT22;15261;50.356;10.340;2022-08-21T10:00:59;25.40;92.90
27922;DHT22;15261;50.356;10.340;2022-08-21T10:03:25;25.50;92.70
27922;DHT22;15261;50.356;10.340;2022-08-21T10:06:10;25.60;91.10
27922;DHT22;15261;50.356;10.340;2022-08-21T10:08:45;25.70;91.30
27922;DHT22;15261;50.356;10.340;2022-08-21T10:11:16;25.90;91.00
27922;DHT22;15261;50.356;10.340;2022-08-21T10:24:45;25.70;87.30
27922;DHT22;15261;50.356;10.340;2022-08-21T10:33:13;25.50;85.80
27922;DHT22;15261;50.356;10.340;2022-08-21T10:35:49;25.60;85.10
27922;DHT22;15261;50.356;10.340;2022-08-21T10:47:01;26.70;82.70
27922;DHT22;15261;50.356;10.340;2022-08-21T10:49:49;26.70;79.20
27922;DHT22;15261;50.356;10.340;2022-08-21T10:55:23;26.10;78.70
27922;DHT22;15261;50.356;10.340;2022-08-21T10:58:08;25.60;80.30
27922;DHT22;15261;50.356;10.340;2022-08-21T11:00:59;25.40;84.10
27922;DHT22;15261;50.356;10.340;2022-08-21T11:03:35;25.30;82.60
27922;DHT22;15261;50.356;10.340;2022-08-21T11:06:20;25.10;82.60
